sensor_id;sensor_type;location;lat;lon;timestamp;pressure;altitude;pressure_sealevel;temperature;humidity
37238;BME280;23129;49.662;8.448;2023-06-10T00:01:24;100303.59;;;21.77;53.64
37238;BME280;23129;49.662;8.448;2023-06-10T00:03:53;100303.97;;;21.72;53.88
37238;BME280;23129;49.662;8.448;2023-06-10T00:06:22;100310.50;;;21.68;53.98
37238;BME280;23129;49.662;8.448;2023-06-10T00:08:51;100302.00;;;21.63;54.21
37238;BME280;23129;49.662;8.448;2023-06-10T00:11:21;100297.75;;;21.60;54.08
37238;BME280;23129;49.662;8.448;2023-06-10T00:13:50;100297.13;;;21.57;54.27
37238;BME280;23129;49.662;8.448;2023-06-10T00:16:19;100301.81;;;21.53;54.15
37238;BME280;23129;49.662;8.448;2023-06-10T00:18:49;100304.72;;;21.50;54.48
37238;BME280;23129;49.662;8.448;2023-06-10T00:21:18;100303.38;;;21.45;54.28
37238;BME280;23129;49.662;8.448;2023-06-10T00:23:47;100298.28;;;21.41;54.63
37238;BME280;23129;49.662;8.448;2023-06-10T00:26:17;100295.72;;;21.40;54.72
37238;BME280;23129;49.662;8.448;2023-06-10T00:28:45;100290.69;;;21.35;54.87
37238;BME280;23129;49.662;8.448;2023-06-10T00:31:16;100290.22;;;21.30;55.03
37238;BME280;23129;49.662;8.448;2023-06-10T00:33:44;100297.69;;;21.25;55.16
37238;BME280;23129;49.662;8.448;2023-06-10T00:36:13;100296.25;;;21.21;55.24
37238;BME280;23129;49.662;8.448;2023-06-10T00:38:41;100294.75;;;21.17;55.32
37238;BME280;23129;49.662;8.448;2023-06-10T00:41:10;100302.97;;;21.14;55.61
37238;BME280;23129;49.662;8.448;2023-06-10T00:43:39;100299.56;;;21.12;55.57
37238;BME280;23129;49.662;8.448;2023-06-10T00:46:08;100304.28;;;21.08;55.69
37238;BME280;23129;49.662;8.448;2023-06-10T00:48:38;100304.41;;;21.07;55.61
37238;BME280;23129;49.662;8.448;2023-06-10T00:51:09;100301.22;;;21.02;55.70
37238;BME280;23129;49.662;8.448;2023-06-10T00:53:40;100305.94;;;20.98;55.95
37238;BME280;23129;49.662;8.448;2023-06-10T00:56:09;100303.59;;;20.93;55.95
37238;BME280;23129;49.662;8.448;2023-06-10T00:58:38;100310.97;;;20.90;56.00
37238;BME280;23129;49.662;8.448;2023-06-10T01:01:07;100319.19;;;20.87;56.29
37238;BME280;23129;49.662;8.448;2023-06-10T01:03:39;100314.00;;;20.85;56.28
37238;BME280;23129;49.662;8.448;2023-06-10T01:06:23;100312.28;;;20.84;56.23
37238;BME280;23129;49.662;8.448;2023-06-10T01:09:06;100309.22;;;20.78;56.31
37238;BME280;23129;49.662;8.448;2023-06-10T01:11:45;100320.94;;;20.75;56.47
37238;BME280;23129;49.662;8.448;2023-06-10T01:14:16;100319.47;;;20.71;56.79
37238;BME280;23129;49.662;8.448;2023-06-10T01:16:45;100321.38;;;20.69;56.81
37238;BME280;23129;49.662;8.448;2023-06-10T01:19:15;100321.59;;;20.66;56.96
37238;BME280;23129;49.662;8.448;2023-06-10T01:21:46;100320.00;;;20.63;56.91
37238;BME280;23129;49.662;8.448;2023-06-10T01:24:18;100314.06;;;20.60;56.97
37238;BME280;23129;49.662;8.448;2023-06-10T01:26:49;100322.19;;;20.58;57.06
37238;BME280;23129;49.662;8.448;2023-06-10T01:29:23;100316.19;;;20.55;57.06
37238;BME280;23129;49.662;8.448;2023-06-10T01:32:17;100317.16;;;20.54;57.13
37238;BME280;23129;49.662;8.448;2023-06-10T01:34:47;100318.53;;;20.46;57.37
37238;BME280;23129;49.662;8.448;2023-06-10T01:37:20;100317.78;;;20.44;57.32
37238;BME280;23129;49.662;8.448;2023-06-10T01:39:53;100324.09;;;20.43;57.35
37238;BME280;23129;49.662;8.448;2023-06-10T01:42:23;100321.63;;;20.40;57.66
37238;BME280;23129;49.662;8.448;2023-06-10T01:44:52;100315.66;;;20.37;57.41
37238;BME280;23129;49.662;8.448;2023-06-10T01:47:21;100325.69;;;20.33;57.63
37238;BME280;23129;49.662;8.448;2023-06-10T01:49:49;100327.81;;;20.28;57.75
37238;BME280;23129;49.662;8.448;2023-06-10T01:52:20;100329.97;;;20.23;58.29
37238;BME280;23129;49.662;8.448;2023-06-10T01:54:48;100326.00;;;20.16;58.37
37238;BME280;23129;49.662;8.448;2023-06-10T01:57:18;100325.50;;;20.11;58.69
37238;BME280;23129;49.662;8.448;2023-06-10T01:59:47;100314.38;;;20.04;58.94
37238;BME280;23129;49.662;8.448;2023-06-10T02:02:16;100321.03;;;19.98;58.81
37238;BME280;23129;49.662;8.448;2023-06-10T02:04:44;100317.81;;;19.93;59.15
37238;BME280;23129;49.662;8.448;2023-06-10T02:07:13;100329.72;;;19.88;59.39
37238;BME280;23129;49.662;8.448;2023-06-10T02:09:43;100325.69;;;19.82;59.58
37238;BME280;23129;49.662;8.448;2023-06-10T02:12:12;100336.94;;;19.73;60.04
37238;BME280;23129;49.662;8.448;2023-06-10T02:14:44;100336.31;;;19.69;60.17
37238;BME280;23129;49.662;8.448;2023-06-10T02:17:12;100334.13;;;19.61;60.25
37238;BME280;23129;49.662;8.448;2023-06-10T02:19:42;100332.63;;;19.57;60.35
37238;BME280;23129;49.662;8.448;2023-06-10T02:22:11;100334.75;;;19.52;60.83
37238;BME280;23129;49.662;8.448;2023-06-10T02:24:39;100339.41;;;19.49;60.82
37238;BME280;23129;49.662;8.448;2023-06-10T02:27:09;100329.06;;;19.44;61.04
37238;BME280;23129;49.662;8.448;2023-06-10T02:29:37;100335.56;;;19.40;61.14
37238;BME280;23129;49.662;8.448;2023-06-10T02:32:07;100336.63;;;19.37;61.55
37238;BME280;23129;49.662;8.448;2023-06-10T02:34:38;100334.28;;;19.33;61.65
37238;BME280;23129;49.662;8.448;2023-06-10T02:37:07;100337.13;;;19.30;61.72
37238;BME280;23129;49.662;8.448;2023-06-10T02:39:36;100334.69;;;19.27;61.97
37238;BME280;23129;49.662;8.448;2023-06-10T02:42:10;100343.59;;;19.26;61.68
37238;BME280;23129;49.662;8.448;2023-06-10T02:44:39;100341.13;;;19.23;62.04
37238;BME280;23129;49.662;8.448;2023-06-10T02:47:12;100342.31;;;19.19;62.13
37238;BME280;23129;49.662;8.448;2023-06-10T02:49:41;100344.19;;;19.16;62.22
37238;BME280;23129;49.662;8.448;2023-06-10T02:52:10;100342.91;;;19.09;62.44
37238;BME280;23129;49.662;8.448;2023-06-10T02:54:39;100343.84;;;19.08;62.51
37238;BME280;23129;49.662;8.448;2023-06-10T02:57:10;100341.28;;;19.07;62.57
37238;BME280;23129;49.662;8.448;2023-06-10T02:59:41;100346.69;;;19.05;62.40
37238;BME280;23129;49.662;8.448;2023-06-10T03:02:10;100349.47;;;19.04;62.68
37238;BME280;23129;49.662;8.448;2023-06-10T03:04:46;100343.50;;;19.00;62.63
37238;BME280;23129;49.662;8.448;2023-06-10T03:07:17;100351.47;;;19.00;62.94
37238;BME280;23129;49.662;8.448;2023-06-10T03:09:46;100347.28;;;18.96;63.00
37238;BME280;23129;49.662;8.448;2023-06-10T03:12:16;100353.50;;;18.97;62.80
37238;BME280;23129;49.662;8.448;2023-06-10T03:14:47;100351.09;;;18.92;63.28
37238;BME280;23129;49.662;8.448;2023-06-10T03:17:17;100348.72;;;18.87;63.35
37238;BME280;23129;49.662;8.448;2023-06-10T03:19:46;100346.19;;;18.86;63.37
37238;BME280;23129;49.662;8.448;2023-06-10T03:22:16;100350.84;;;18.82;63.71
37238;BME280;23129;49.662;8.448;2023-06-10T03:24:55;100346.59;;;18.80;63.76
37238;BME280;23129;49.662;8.448;2023-06-10T03:27:26;100345.81;;;18.78;63.75
37238;BME280;23129;49.662;8.448;2023-06-10T03:30:00;100353.22;;;18.73;64.17
37238;BME280;23129;49.662;8.448;2023-06-10T03:32:29;100358.59;;;18.71;64.32
37238;BME280;23129;49.662;8.448;2023-06-10T03:34:59;100357.97;;;18.67;64.53
37238;BME280;23129;49.662;8.448;2023-06-10T03:37:29;100360.03;;;18.62;64.40
37238;BME280;23129;49.662;8.448;2023-06-10T03:39:58;100362.81;;;18.61;64.94
37238;BME280;23129;49.662;8.448;2023-06-10T03:42:28;100365.53;;;18.59;64.94
37238;BME280;23129;49.662;8.448;2023-06-10T03:44:57;100360.44;;;18.56;65.05
37238;BME280;23129;49.662;8.448;2023-06-10T03:47:33;100366.59;;;18.57;65.26
37238;BME280;23129;49.662;8.448;2023-06-10T03:50:06;100364.03;;;18.55;65.16
37238;BME280;23129;49.662;8.448;2023-06-10T03:52:39;100365.75;;;18.56;64.99
37238;BME280;23129;49.662;8.448;2023-06-10T03:55:09;100359.78;;;18.53;65.43
37238;BME280;23129;49.662;8.448;2023-06-10T03:57:42;100376.56;;;18.53;65.58
37238;BME280;23129;49.662;8.448;2023-06-10T04:00:12;100373.91;;;18.53;65.69
37238;BME280;23129;49.662;8.448;2023-06-10T04:02:41;100376.56;;;18.53;65.74
37238;BME280;23129;49.662;8.448;2023-06-10T04:05:20;100368.50;;;18.55;65.42
37238;BME280;23129;49.662;8.448;2023-06-10T04:07:52;100371.06;;;18.56;65.65
37238;BME280;23129;49.662;8.448;2023-06-10T04:10:21;100371.91;;;18.57;65.90
37238;BME280;23129;49.662;8.448;2023-06-10T04:12:50;100369.16;;;18.58;65.94
37238;BME280;23129;49.662;8.448;2023-06-10T04:15:19;100371.81;;;18.58;66.02
37238;BME280;23129;49.662;8.448;2023-06-10T04:17:49;100379.47;;;18.63;66.09
37238;BME280;23129;49.662;8.448;2023-06-10T04:20:21;100371.31;;;18.66;66.08
37238;BME280;23129;49.662;8.448;2023-06-10T04:22:50;100373.91;;;18.67;66.05
37238;BME280;23129;49.662;8.448;2023-06-10T04:25:19;100378.25;;;18.68;65.97
37238;BME280;23129;49.662;8.448;2023-06-10T04:27:51;100379.03;;;18.70;66.29
37238;BME280;23129;49.662;8.448;2023-06-10T04:30:19;100384.34;;;18.70;66.37
37238;BME280;23129;49.662;8.448;2023-06-10T04:32:50;100380.72;;;18.71;66.28
37238;BME280;23129;49.662;8.448;2023-06-10T04:35:19;100390.34;;;18.74;66.53
37238;BME280;23129;49.662;8.448;2023-06-10T04:37:49;100388.44;;;18.76;66.26
37238;BME280;23129;49.662;8.448;2023-06-10T04:40:17;100393.66;;;18.78;66.33
37238;BME280;23129;49.662;8.448;2023-06-10T04:42:47;100390.78;;;18.81;66.39
37238;BME280;23129;49.662;8.448;2023-06-10T04:45:17;100392.31;;;18.85;66.65
37238;BME280;23129;49.662;8.448;2023-06-10T04:47:46;100389.47;;;18.88;66.68
37238;BME280;23129;49.662;8.448;2023-06-10T04:50:14;100390.97;;;18.92;66.61
37238;BME280;23129;49.662;8.448;2023-06-10T04:52:44;100393.44;;;18.95;66.73
37238;BME280;23129;49.662;8.448;2023-06-10T04:55:13;100389.63;;;18.99;66.69
37238;BME280;23129;49.662;8.448;2023-06-10T04:57:41;100385.84;;;19.03;66.54
37238;BME280;23129;49.662;8.448;2023-06-10T05:00:11;100382.88;;;19.08;66.73
37238;BME280;23129;49.662;8.448;2023-06-10T05:02:42;100384.19;;;19.15;66.55
37238;BME280;23129;49.662;8.448;2023-06-10T05:05:10;100389.31;;;19.18;66.57
37238;BME280;23129;49.662;8.448;2023-06-10T05:07:39;100392.44;;;19.25;66.43
37238;BME280;23129;49.662;8.448;2023-06-10T05:10:09;100392.03;;;19.31;66.57
37238;BME280;23129;49.662;8.448;2023-06-10T05:12:39;100391.75;;;19.35;66.32
37238;BME280;23129;49.662;8.448;2023-06-10T05:15:09;100387.78;;;19.41;66.31
37238;BME280;23129;49.662;8.448;2023-06-10T05:17:38;100390.06;;;19.47;66.03
37238;BME280;23129;49.662;8.448;2023-06-10T05:20:09;100396.69;;;19.54;66.32
37238;BME280;23129;49.662;8.448;2023-06-10T05:22:38;100391.16;;;19.57;65.97
37238;BME280;23129;49.662;8.448;2023-06-10T05:25:07;100389.91;;;19.63;66.05
37238;BME280;23129;49.662;8.448;2023-06-10T05:27:36;100395.72;;;19.70;66.08
37238;BME280;23129;49.662;8.448;2023-06-10T05:30:08;100395.28;;;19.76;65.95
37238;BME280;23129;49.662;8.448;2023-06-10T05:32:37;100397.66;;;19.80;65.79
37238;BME280;23129;49.662;8.448;2023-06-10T05:35:07;100398.31;;;19.84;66.08
37238;BME280;23129;49.662;8.448;2023-06-10T05:37:36;100403.22;;;19.90;65.87
37238;BME280;23129;49.662;8.448;2023-06-10T05:40:07;100405.34;;;19.98;65.95
37238;BME280;23129;49.662;8.448;2023-06-10T05:42:36;100406.00;;;20.01;65.90
37238;BME280;23129;49.662;8.448;2023-06-10T05:45:06;100401.97;;;20.09;65.95
37238;BME280;23129;49.662;8.448;2023-06-10T05:47:36;100399.84;;;20.14;65.55
37238;BME280;23129;49.662;8.448;2023-06-10T05:50:05;100406.56;;;20.19;65.73
37238;BME280;23129;49.662;8.448;2023-06-10T05:52:37;100401.75;;;20.24;65.62
37238;BME280;23129;49.662;8.448;2023-06-10T05:55:08;100410.28;;;20.29;65.50
37238;BME280;23129;49.662;8.448;2023-06-10T05:57:38;100417.00;;;20.35;65.33
37238;BME280;23129;49.662;8.448;2023-06-10T06:00:08;100412.00;;;20.43;65.32
37238;BME280;23129;49.662;8.448;2023-06-10T06:02:39;100411.56;;;20.49;65.40
37238;BME280;23129;49.662;8.448;2023-06-10T06:05:08;100413.84;;;20.56;65.19
37238;BME280;23129;49.662;8.448;2023-06-10T06:07:39;100414.91;;;20.66;65.29
37238;BME280;23129;49.662;8.448;2023-06-10T06:10:08;100418.09;;;20.71;65.17
37238;BME280;23129;49.662;8.448;2023-06-10T06:12:36;100419.56;;;20.75;65.14
37238;BME280;23129;49.662;8.448;2023-06-10T06:15:06;100423.63;;;20.81;65.15
37238;BME280;23129;49.662;8.448;2023-06-10T06:17:36;100421.59;;;20.84;65.05
37238;BME280;23129;49.662;8.448;2023-06-10T06:20:06;100417.75;;;20.88;64.92
37238;BME280;23129;49.662;8.448;2023-06-10T06:22:35;100419.22;;;20.92;64.94
37238;BME280;23129;49.662;8.448;2023-06-10T06:25:06;100425.81;;;21.00;64.80
37238;BME280;23129;49.662;8.448;2023-06-10T06:27:36;100420.25;;;21.03;64.70
37238;BME280;23129;49.662;8.448;2023-06-10T06:30:06;100410.13;;;21.08;64.61
37238;BME280;23129;49.662;8.448;2023-06-10T06:32:34;100414.06;;;21.15;64.48
37238;BME280;23129;49.662;8.448;2023-06-10T06:35:04;100410.94;;;21.21;64.36
37238;BME280;23129;49.662;8.448;2023-06-10T06:37:36;100411.13;;;21.31;64.35
37238;BME280;23129;49.662;8.448;2023-06-10T06:40:19;100413.38;;;21.37;64.05
37238;BME280;23129;49.662;8.448;2023-06-10T06:42:48;100417.41;;;21.42;64.33
37238;BME280;23129;49.662;8.448;2023-06-10T06:45:35;100414.28;;;21.49;64.01
37238;BME280;23129;49.662;8.448;2023-06-10T06:48:05;100416.28;;;21.58;64.04
37238;BME280;23129;49.662;8.448;2023-06-10T06:50:34;100419.34;;;21.64;63.74
37238;BME280;23129;49.662;8.448;2023-06-10T06:53:02;100424.22;;;21.71;63.60
37238;BME280;23129;49.662;8.448;2023-06-10T06:55:32;100425.56;;;21.76;63.57
37238;BME280;23129;49.662;8.448;2023-06-10T06:58:01;100432.16;;;21.83;63.31
37238;BME280;23129;49.662;8.448;2023-06-10T07:00:31;100429.88;;;21.90;63.11
37238;BME280;23129;49.662;8.448;2023-06-10T07:03:00;100432.94;;;21.97;63.17
37238;BME280;23129;49.662;8.448;2023-06-10T07:05:29;100433.44;;;22.02;63.31
37238;BME280;23129;49.662;8.448;2023-06-10T07:07:58;100422.16;;;22.09;63.18
37238;BME280;23129;49.662;8.448;2023-06-10T07:10:28;100423.44;;;22.17;63.24
37238;BME280;23129;49.662;8.448;2023-06-10T07:12:57;100427.44;;;22.22;63.15
37238;BME280;23129;49.662;8.448;2023-06-10T07:15:27;100426.13;;;22.28;62.71
37238;BME280;23129;49.662;8.448;2023-06-10T07:17:55;100426.50;;;22.34;62.62
37238;BME280;23129;49.662;8.448;2023-06-10T07:20:24;100427.75;;;22.42;62.35
37238;BME280;23129;49.662;8.448;2023-06-10T07:22:53;100423.59;;;22.49;62.14
37238;BME280;23129;49.662;8.448;2023-06-10T07:25:21;100433.81;;;22.55;62.08
37238;BME280;23129;49.662;8.448;2023-06-10T07:27:50;100426.28;;;22.60;62.17
37238;BME280;23129;49.662;8.448;2023-06-10T07:30:19;100425.56;;;22.69;62.01
37238;BME280;23129;49.662;8.448;2023-06-10T07:32:48;100428.50;;;22.77;61.72
37238;BME280;23129;49.662;8.448;2023-06-10T07:35:18;100432.88;;;22.90;61.31
37238;BME280;23129;49.662;8.448;2023-06-10T07:37:47;100426.06;;;23.08;60.79
37238;BME280;23129;49.662;8.448;2023-06-10T07:40:16;100431.16;;;23.34;60.63
37238;BME280;23129;49.662;8.448;2023-06-10T07:42:44;100426.44;;;23.69;60.13
37238;BME280;23129;49.662;8.448;2023-06-10T07:45:13;100434.44;;;24.23;59.47
37238;BME280;23129;49.662;8.448;2023-06-10T07:47:43;100423.59;;;25.06;57.60
37238;BME280;23129;49.662;8.448;2023-06-10T07:50:12;100422.59;;;25.96;55.63
37238;BME280;23129;49.662;8.448;2023-06-10T07:52:40;100411.13;;;26.80;54.09
37238;BME280;23129;49.662;8.448;2023-06-10T07:55:09;100415.47;;;27.64;52.51
37238;BME280;23129;49.662;8.448;2023-06-10T07:57:38;100418.47;;;28.41;51.34
37238;BME280;23129;49.662;8.448;2023-06-10T08:00:08;100418.13;;;29.04;49.94
37238;BME280;23129;49.662;8.448;2023-06-10T08:02:39;100408.44;;;29.52;49.09
37238;BME280;23129;49.662;8.448;2023-06-10T08:05:09;100414.63;;;29.71;48.57
37238;BME280;23129;49.662;8.448;2023-06-10T08:07:39;100412.06;;;29.77;47.83
37238;BME280;23129;49.662;8.448;2023-06-10T08:10:10;100409.88;;;29.89;47.92
37238;BME280;23129;49.662;8.448;2023-06-10T08:12:38;100412.22;;;30.09;46.68
37238;BME280;23129;49.662;8.448;2023-06-10T08:15:08;100401.06;;;30.20;46.38
37238;BME280;23129;49.662;8.448;2023-06-10T08:17:37;100404.78;;;30.35;45.95
37238;BME280;23129;49.662;8.448;2023-06-10T08:20:09;100404.41;;;30.55;45.14
37238;BME280;23129;49.662;8.448;2023-06-10T08:22:38;100403.72;;;30.53;44.59
37238;BME280;23129;49.662;8.448;2023-06-10T08:25:09;100404.69;;;30.68;44.88
37238;BME280;23129;49.662;8.448;2023-06-10T08:27:38;100407.06;;;30.79;44.16
37238;BME280;23129;49.662;8.448;2023-06-10T08:30:08;100400.91;;;30.93;43.95
37238;BME280;23129;49.662;8.448;2023-06-10T08:32:38;100406.31;;;30.93;43.15
37238;BME280;23129;49.662;8.448;2023-06-10T08:35:07;100397.38;;;30.77;43.22
37238;BME280;23129;49.662;8.448;2023-06-10T08:37:37;100399.94;;;30.70;43.13
37238;BME280;23129;49.662;8.448;2023-06-10T08:40:08;100403.03;;;30.59;43.26
37238;BME280;23129;49.662;8.448;2023-06-10T08:42:43;100399.00;;;30.55;43.49
37238;BME280;23129;49.662;8.448;2023-06-10T08:45:17;100399.97;;;30.62;43.05
37238;BME280;23129;49.662;8.448;2023-06-10T08:47:49;100394.22;;;30.65;42.09
37238;BME280;23129;49.662;8.448;2023-06-10T08:50:19;100398.09;;;30.70;42.22
37238;BME280;23129;49.662;8.448;2023-06-10T08:52:53;100393.91;;;30.99;41.47
37238;BME280;23129;49.662;8.448;2023-06-10T08:55:27;100399.66;;;31.04;41.04
37238;BME280;23129;49.662;8.448;2023-06-10T08:58:00;100399.16;;;31.01;40.73
37238;BME280;23129;49.662;8.448;2023-06-10T09:00:30;100388.22;;;31.17;40.94
37238;BME280;23129;49.662;8.448;2023-06-10T09:02:59;100385.47;;;31.25;40.05
37238;BME280;23129;49.662;8.448;2023-06-10T09:05:34;100389.75;;;31.51;39.56
37238;BME280;23129;49.662;8.448;2023-06-10T09:08:07;100381.41;;;31.75;39.06
37238;BME280;23129;49.662;8.448;2023-06-10T09:10:36;100377.56;;;31.93;38.89
37238;BME280;23129;49.662;8.448;2023-06-10T09:13:05;100377.34;;;32.17;38.23
37238;BME280;23129;49.662;8.448;2023-06-10T09:15:33;100382.19;;;32.37;37.55
37238;BME280;23129;49.662;8.448;2023-06-10T09:18:02;100366.69;;;32.45;37.41
37238;BME280;23129;49.662;8.448;2023-06-10T09:20:32;100367.34;;;32.62;37.01
37238;BME280;23129;49.662;8.448;2023-06-10T09:23:01;100364.94;;;32.67;36.72
37238;BME280;23129;49.662;8.448;2023-06-10T09:25:38;100373.13;;;32.89;36.76
37238;BME280;23129;49.662;8.448;2023-06-10T09:28:14;100353.78;;;33.13;36.12
37238;BME280;23129;49.662;8.448;2023-06-10T09:30:43;100358.72;;;33.25;35.54
37238;BME280;23129;49.662;8.448;2023-06-10T09:33:13;100355.25;;;33.31;35.19
37238;BME280;23129;49.662;8.448;2023-06-10T09:35:47;100353.69;;;33.43;35.27
37238;BME280;23129;49.662;8.448;2023-06-10T09:38:20;100352.53;;;33.52;34.83
37238;BME280;23129;49.662;8.448;2023-06-10T09:40:52;100351.94;;;33.78;34.44
37238;BME280;23129;49.662;8.448;2023-06-10T09:43:21;100349.63;;;34.03;33.71
37238;BME280;23129;49.662;8.448;2023-06-10T09:45:50;100342.72;;;34.36;33.27
37238;BME280;23129;49.662;8.448;2023-06-10T09:48:21;100347.06;;;34.58;33.06
37238;BME280;23129;49.662;8.448;2023-06-10T09:50:51;100350.94;;;34.77;32.66
37238;BME280;23129;49.662;8.448;2023-06-10T09:53:20;100347.28;;;35.05;31.82
37238;BME280;23129;49.662;8.448;2023-06-10T09:55:51;100354.44;;;35.19;30.99
37238;BME280;23129;49.662;8.448;2023-06-10T09:58:34;100350.47;;;35.28;31.04
37238;BME280;23129;49.662;8.448;2023-06-10T10:01:07;100344.84;;;35.50;30.28
37238;BME280;23129;49.662;8.448;2023-06-10T10:03:44;100352.00;;;35.77;30.45
37238;BME280;23129;49.662;8.448;2023-06-10T10:06:15;100334.78;;;35.97;29.65
37238;BME280;23129;49.662;8.448;2023-06-10T10:08:46;100344.84;;;36.16;29.90
37238;BME280;23129;49.662;8.448;2023-06-10T10:11:18;100346.09;;;36.27;29.31
37238;BME280;23129;49.662;8.448;2023-06-10T10:13:50;100341.19;;;36.49;28.98
37238;BME280;23129;49.662;8.448;2023-06-10T10:16:21;100340.94;;;36.70;28.92
37238;BME280;23129;49.662;8.448;2023-06-10T10:18:54;100351.00;;;36.76;28.08
37238;BME280;23129;49.662;8.448;2023-06-10T10:21:27;100340.06;;;36.83;28.33
37238;BME280;23129;49.662;8.448;2023-06-10T10:24:05;100338.69;;;36.99;28.12
37238;BME280;23129;49.662;8.448;2023-06-10T10:26:38;100339.53;;;37.06;27.99
37238;BME280;23129;49.662;8.448;2023-06-10T10:29:12;100342.44;;;37.11;27.46
37238;BME280;23129;49.662;8.448;2023-06-10T10:31:43;100329.47;;;37.00;27.47
37238;BME280;23129;49.662;8.448;2023-06-10T10:34:16;100338.59;;;36.81;27.12
37238;BME280;23129;49.662;8.448;2023-06-10T10:36:46;100333.41;;;36.66;27.01
37238;BME280;23129;49.662;8.448;2023-06-10T10:39:15;100327.56;;;36.94;27.47
37238;BME280;23129;49.662;8.448;2023-06-10T10:41:46;100328.59;;;37.38;26.83
37238;BME280;23129;49.662;8.448;2023-06-10T10:44:15;100317.34;;;37.53;25.97
37238;BME280;23129;49.662;8.448;2023-06-10T10:46:48;100323.66;;;37.53;26.48
37238;BME280;23129;49.662;8.448;2023-06-10T10:49:18;100319.97;;;37.66;26.13
37238;BME280;23129;49.662;8.448;2023-06-10T10:51:57;100317.88;;;37.86;25.97
37238;BME280;23129;49.662;8.448;2023-06-10T10:54:29;100319.22;;;38.02;25.86
37238;BME280;23129;49.662;8.448;2023-06-10T10:57:14;100311.13;;;37.89;25.78
37238;BME280;23129;49.662;8.448;2023-06-10T10:59:54;100312.69;;;38.03;25.88
37238;BME280;23129;49.662;8.448;2023-06-10T11:02:36;100319.47;;;38.01;25.49
37238;BME280;23129;49.662;8.448;2023-06-10T11:05:08;100317.28;;;38.09;25.37
37238;BME280;23129;49.662;8.448;2023-06-10T11:07:38;100316.09;;;37.99;25.38
37238;BME280;23129;49.662;8.448;2023-06-10T11:10:08;100320.91;;;37.78;25.63
37238;BME280;23129;49.662;8.448;2023-06-10T11:12:54;100314.97;;;37.81;25.58
37238;BME280;23129;49.662;8.448;2023-06-10T11:15:24;100318.84;;;37.74;25.47
37238;BME280;23129;49.662;8.448;2023-06-10T11:18:22;100309.50;;;38.06;25.19
37238;BME280;23129;49.662;8.448;2023-06-10T11:21:00;100299.47;;;38.37;25.00
37238;BME280;23129;49.662;8.448;2023-06-10T11:23:40;100303.97;;;38.68;24.88
37238;BME280;23129;49.662;8.448;2023-06-10T11:26:29;100297.75;;;38.91;24.52
37238;BME280;23129;49.662;8.448;2023-06-10T11:29:07;100296.88;;;39.21;24.39
37238;BME280;23129;49.662;8.448;2023-06-10T11:31:41;100297.66;;;39.52;23.96
37238;BME280;23129;49.662;8.448;2023-06-10T11:34:11;100294.13;;;39.86;23.64
37238;BME280;23129;49.662;8.448;2023-06-10T11:36:43;100298.41;;;40.06;23.23
37238;BME280;23129;49.662;8.448;2023-06-10T11:39:12;100304.28;;;40.33;23.26
37238;BME280;23129;49.662;8.448;2023-06-10T11:41:41;100298.41;;;40.29;23.35
37238;BME280;23129;49.662;8.448;2023-06-10T11:44:13;100297.84;;;39.92;23.21
37238;BME280;23129;49.662;8.448;2023-06-10T11:46:48;100291.13;;;40.11;23.28
37238;BME280;23129;49.662;8.448;2023-06-10T11:49:20;100291.59;;;40.20;23.12
37238;BME280;23129;49.662;8.448;2023-06-10T11:51:49;100281.97;;;39.82;23.37
37238;BME280;23129;49.662;8.448;2023-06-10T11:54:19;100283.50;;;39.78;23.35
37238;BME280;23129;49.662;8.448;2023-06-10T11:56:48;100286.69;;;39.52;23.50
37238;BME280;23129;49.662;8.448;2023-06-10T11:59:18;100281.81;;;39.54;23.59
37238;BME280;23129;49.662;8.448;2023-06-10T12:01:55;100284.31;;;39.43;23.47
37238;BME280;23129;49.662;8.448;2023-06-10T12:04:23;100272.94;;;39.40;23.40
37238;BME280;23129;49.662;8.448;2023-06-10T12:06:54;100278.28;;;39.23;23.49
37238;BME280;23129;49.662;8.448;2023-06-10T12:09:25;100280.34;;;38.67;23.94
37238;BME280;23129;49.662;8.448;2023-06-10T12:11:58;100279.75;;;38.10;24.15
37238;BME280;23129;49.662;8.448;2023-06-10T12:14:55;100281.16;;;37.76;24.57
37238;BME280;23129;49.662;8.448;2023-06-10T12:17:37;100273.59;;;37.46;24.88
37238;BME280;23129;49.662;8.448;2023-06-10T12:20:08;100271.22;;;37.24;24.66
37238;BME280;23129;49.662;8.448;2023-06-10T12:22:40;100276.66;;;36.99;24.74
37238;BME280;23129;49.662;8.448;2023-06-10T12:25:11;100272.78;;;36.75;24.94
37238;BME280;23129;49.662;8.448;2023-06-10T12:27:50;100270.38;;;36.54;25.41
37238;BME280;23129;49.662;8.448;2023-06-10T12:30:23;100270.50;;;36.07;25.08
37238;BME280;23129;49.662;8.448;2023-06-10T12:32:54;100275.63;;;35.57;25.97
37238;BME280;23129;49.662;8.448;2023-06-10T12:35:24;100281.03;;;35.77;25.02
37238;BME280;23129;49.662;8.448;2023-06-10T12:37:57;100266.63;;;36.42;25.15
37238;BME280;23129;49.662;8.448;2023-06-10T12:40:29;100270.28;;;36.74;23.96
37238;BME280;23129;49.662;8.448;2023-06-10T12:42:59;100277.16;;;36.38;24.76
37238;BME280;23129;49.662;8.448;2023-06-10T12:45:31;100277.88;;;35.94;24.76
37238;BME280;23129;49.662;8.448;2023-06-10T12:48:07;100272.19;;;35.42;25.21
37238;BME280;23129;49.662;8.448;2023-06-10T12:50:38;100277.19;;;34.98;25.42
37238;BME280;23129;49.662;8.448;2023-06-10T12:53:08;100279.44;;;34.75;25.80
37238;BME280;23129;49.662;8.448;2023-06-10T12:55:38;100278.69;;;34.53;26.13
37238;BME280;23129;49.662;8.448;2023-06-10T12:58:07;100263.47;;;34.72;25.70
37238;BME280;23129;49.662;8.448;2023-06-10T13:00:37;100269.66;;;35.01;25.41
37238;BME280;23129;49.662;8.448;2023-06-10T13:03:07;100266.34;;;35.25;25.23
37238;BME280;23129;49.662;8.448;2023-06-10T13:05:36;100259.19;;;35.51;25.29
37238;BME280;23129;49.662;8.448;2023-06-10T13:08:06;100259.44;;;35.56;24.89
37238;BME280;23129;49.662;8.448;2023-06-10T13:10:37;100264.81;;;36.16;24.24